sensor_id;sensor_type;location;lat;lon;timestamp;temperature;humidity
15274;DHT22;7738;49.532;11.156;2023-06-01T00:02:33;11.70;88.90
15274;DHT22;7738;49.532;11.156;2023-06-01T00:05:05;12.20;90.10
15274;DHT22;7738;49.532;11.156;2023-06-01T00:07:35;11.60;90.20
15274;DHT22;7738;49.532;11.156;2023-06-01T00:10:06;11.20;90.20
15274;DHT22;7738;49.532;11.156;2023-06-01T00:12:36;12.00;90.90
15274;DHT22;7738;49.532;11.156;2023-06-01T00:15:07;11.40;91.10
15274;DHT22;7738;49.532;11.156;2023-06-01T00:17:40;11.60;91.20
15274;DHT22;7738;49.532;11.156;2023-06-01T00:20:10;11.70;91.80
15274;DHT22;7738;49.532;11.156;2023-06-01T00:22:41;11.80;93.10
15274;DHT22;7738;49.532;11.156;2023-06-01T00:25:11;11.30;94.00
15274;DHT22;7738;49.532;11.156;2023-06-01T00:27:41;11.30;95.00
15274;DHT22;7738;49.532;11.156;2023-06-01T00:30:12;11.80;95.40
15274;DHT22;7738;49.532;11.156;2023-06-01T00:32:45;11.70;95.20
15274;DHT22;7738;49.532;11.156;2023-06-01T00:35:15;11.60;95.00
15274;DHT22;7738;49.532;11.156;2023-06-01T00:37:45;11.40;95.00
15274;DHT22;7738;49.532;11.156;2023-06-01T00:40:15;11.00;95.40
15274;DHT22;7738;49.532;11.156;2023-06-01T00:42:45;11.80;96.60
15274;DHT22;7738;49.532;11.156;2023-06-01T00:45:16;11.10;96.30
15274;DHT22;7738;49.532;11.156;2023-06-01T00:47:48;11.50;96.10
15274;DHT22;7738;49.532;11.156;2023-06-01T00:50:19;11.60;96.20
15274;DHT22;7738;49.532;11.156;2023-06-01T00:52:50;11.70;95.80
15274;DHT22;7738;49.532;11.156;2023-06-01T00:55:21;11.40;96.10
15274;DHT22;7738;49.532;11.156;2023-06-01T00:57:52;11.40;96.60
15274;DHT22;7738;49.532;11.156;2023-06-01T01:00:23;10.80;97.50
15274;DHT22;7738;49.532;11.156;2023-06-01T01:02:58;10.60;97.80
15274;DHT22;7738;49.532;11.156;2023-06-01T01:05:35;11.10;97.30
15274;DHT22;7738;49.532;11.156;2023-06-01T01:08:12;11.40;98.70
15274;DHT22;7738;49.532;11.156;2023-06-01T01:10:49;10.90;98.70
15274;DHT22;7738;49.532;11.156;2023-06-01T01:13:27;11.10;98.00
15274;DHT22;7738;49.532;11.156;2023-06-01T01:16:00;11.20;98.40
15274;DHT22;7738;49.532;11.156;2023-06-01T01:18:42;11.70;99.40
15274;DHT22;7738;49.532;11.156;2023-06-01T01:21:13;11.10;98.80
15274;DHT22;7738;49.532;11.156;2023-06-01T01:24:21;11.50;99.90
15274;DHT22;7738;49.532;11.156;2023-06-01T01:27:04;11.00;99.90
15274;DHT22;7738;49.532;11.156;2023-06-01T01:29:44;10.90;99.90
15274;DHT22;7738;49.532;11.156;2023-06-01T01:32:16;11.10;99.90
15274;DHT22;7738;49.532;11.156;2023-06-01T01:34:47;10.60;99.90
15274;DHT22;7738;49.532;11.156;2023-06-01T01:37:19;10.30;99.90
15274;DHT22;7738;49.532;11.156;2023-06-01T01:39:51;10.50;99.90
15274;DHT22;7738;49.532;11.156;2023-06-01T01:42:22;10.70;99.90
15274;DHT22;7738;49.532;11.156;2023-06-01T01:44:55;10.80;99.90
15274;DHT22;7738;49.532;11.156;2023-06-01T01:47:36;10.40;99.90
15274;DHT22;7738;49.532;11.156;2023-06-01T01:50:12;11.10;99.90
15274;DHT22;7738;49.532;11.156;2023-06-01T01:52:43;10.80;99.90
15274;DHT22;7738;49.532;11.156;2023-06-01T01:55:14;10.80;99.90
15274;DHT22;7738;49.532;11.156;2023-06-01T01:57:47;11.10;99.90
15274;DHT22;7738;49.532;11.156;2023-06-01T02:00:20;10.30;99.90
15274;DHT22;7738;49.532;11.156;2023-06-01T02:02:51;11.10;99.90
15274;DHT22;7738;49.532;11.156;2023-06-01T02:05:22;10.50;99.90
15274;DHT22;7738;49.532;11.156;2023-06-01T02:07:52;10.80;99.90
15274;DHT22;7738;49.532;11.156;2023-06-01T02:10:22;10.90;99.90
15274;DHT22;7738;49.532;11.156;2023-06-01T02:12:52;10.50;99.90
15274;DHT22;7738;49.532;11.156;2023-06-01T02:15:25;10.90;99.90
15274;DHT22;7738;49.532;11.156;2023-06-01T02:17:55;10.40;99.90
15274;DHT22;7738;49.532;11.156;2023-06-01T02:20:26;10.10;99.90
15274;DHT22;7738;49.532;11.156;2023-06-01T02:22:56;10.10;99.90
15274;DHT22;7738;49.532;11.156;2023-06-01T02:25:26;10.40;99.90
15274;DHT22;7738;49.532;11.156;2023-06-01T02:27:56;10.20;99.90
15274;DHT22;7738;49.532;11.156;2023-06-01T02:30:30;10.10;99.90
15274;DHT22;7738;49.532;11.156;2023-06-01T02:33:00;10.50;99.90
15274;DHT22;7738;49.532;11.156;2023-06-01T02:35:31;10.30;99.90
15274;DHT22;7738;49.532;11.156;2023-06-01T02:38:01;10.60;99.90
15274;DHT22;7738;49.532;11.156;2023-06-01T02:40:32;10.00;99.90
15274;DHT22;7738;49.532;11.156;2023-06-01T02:43:02;9.80;99.90
15274;DHT22;7738;49.532;11.156;2023-06-01T02:45:35;10.10;99.90
15274;DHT22;7738;49.532;11.156;2023-06-01T02:48:06;10.20;99.90
15274;DHT22;7738;49.532;11.156;2023-06-01T02:53:08;10.00;99.90
15274;DHT22;7738;49.532;11.156;2023-06-01T02:55:38;10.40;99.90
15274;DHT22;7738;49.532;11.156;2023-06-01T02:58:28;10.10;99.90
15274;DHT22;7738;49.532;11.156;2023-06-01T03:01:22;10.30;99.90
15274;DHT22;7738;49.532;11.156;2023-06-01T03:12:13;10.30;99.90
15274;DHT22;7738;49.532;11.156;2023-06-01T03:17:17;9.40;99.90
15274;DHT22;7738;49.532;11.156;2023-06-01T03:27:30;10.50;99.90
15274;DHT22;7738;49.532;11.156;2023-06-01T03:30:00;10.00;99.90
15274;DHT22;7738;49.532;11.156;2023-06-01T03:32:33;10.20;99.90
15274;DHT22;7738;49.532;11.156;2023-06-01T03:35:04;9.20;99.90
15274;DHT22;7738;49.532;11.156;2023-06-01T03:37:35;10.00;99.90
15274;DHT22;7738;49.532;11.156;2023-06-01T03:40:07;9.70;99.90
15274;DHT22;7738;49.532;11.156;2023-06-01T03:42:41;9.60;99.90
15274;DHT22;7738;49.532;11.156;2023-06-01T03:45:13;9.10;99.90
15274;DHT22;7738;49.532;11.156;2023-06-01T03:47:46;9.60;99.90
15274;DHT22;7738;49.532;11.156;2023-06-01T03:55:19;9.60;99.90
15274;DHT22;7738;49.532;11.156;2023-06-01T04:00:35;9.30;99.90
15274;DHT22;7738;49.532;11.156;2023-06-01T04:03:08;9.60;99.90
15274;DHT22;7738;49.532;11.156;2023-06-01T04:05:39;9.80;99.90
15274;DHT22;7738;49.532;11.156;2023-06-01T04:08:16;9.80;99.90
15274;DHT22;7738;49.532;11.156;2023-06-01T04:13:19;9.70;99.90
15274;DHT22;7738;49.532;11.156;2023-06-01T04:18:25;9.90;99.90
15274;DHT22;7738;49.532;11.156;2023-06-01T04:26:00;9.90;99.90
15274;DHT22;7738;49.532;11.156;2023-06-01T04:28:31;10.20;99.90
15274;DHT22;7738;49.532;11.156;2023-06-01T04:31:02;9.60;99.90
15274;DHT22;7738;49.532;11.156;2023-06-01T04:33:35;10.30;99.90
15274;DHT22;7738;49.532;11.156;2023-06-01T04:36:07;10.20;99.90
15274;DHT22;7738;49.532;11.156;2023-06-01T04:38:40;10.30;99.90
15274;DHT22;7738;49.532;11.156;2023-06-01T04:41:10;10.70;99.90
15274;DHT22;7738;49.532;11.156;2023-06-01T04:46:12;10.40;99.90
15274;DHT22;7738;49.532;11.156;2023-06-01T04:48:46;10.70;99.90
15274;DHT22;7738;49.532;11.156;2023-06-01T04:51:19;10.80;99.90
15274;DHT22;7738;49.532;11.156;2023-06-01T04:53:52;10.50;99.90
15274;DHT22;7738;49.532;11.156;2023-06-01T04:56:24;11.10;99.90
15274;DHT22;7738;49.532;11.156;2023-06-01T04:58:55;10.70;99.90
15274;DHT22;7738;49.532;11.156;2023-06-01T05:01:28;11.00;99.90
15274;DHT22;7738;49.532;11.156;2023-06-01T05:04:03;11.60;99.90
15274;DHT22;7738;49.532;11.156;2023-06-01T05:11:34;11.20;99.90
15274;DHT22;7738;49.532;11.156;2023-06-01T05:14:05;11.00;99.90
15274;DHT22;7738;49.532;11.156;2023-06-01T05:16:35;11.20;99.90
15274;DHT22;7738;49.532;11.156;2023-06-01T05:19:09;11.20;99.90
15274;DHT22;7738;49.532;11.156;2023-06-01T05:21:43;11.50;99.90
15274;DHT22;7738;49.532;11.156;2023-06-01T05:24:14;12.00;99.90
15274;DHT22;7738;49.532;11.156;2023-06-01T05:26:44;12.10;99.90
15274;DHT22;7738;49.532;11.156;2023-06-01T05:29:15;11.80;99.90
15274;DHT22;7738;49.532;11.156;2023-06-01T05:31:46;11.80;99.90
15274;DHT22;7738;49.532;11.156;2023-06-01T05:34:19;11.90;99.90
15274;DHT22;7738;49.532;11.156;2023-06-01T05:36:50;12.20;99.90
15274;DHT22;7738;49.532;11.156;2023-06-01T05:41:55;12.40;99.90
15274;DHT22;7738;49.532;11.156;2023-06-01T05:44:31;12.40;99.90
15274;DHT22;7738;49.532;11.156;2023-06-01T05:49:35;13.80;99.90
15274;DHT22;7738;49.532;11.156;2023-06-01T05:52:08;13.20;99.90
15274;DHT22;7738;49.532;11.156;2023-06-01T05:54:41;13.10;99.90
15274;DHT22;7738;49.532;11.156;2023-06-01T05:59:42;13.80;99.90
15274;DHT22;7738;49.532;11.156;2023-06-01T06:02:13;13.50;99.90
15274;DHT22;7738;49.532;11.156;2023-06-01T06:04:46;13.90;99.90
15274;DHT22;7738;49.532;11.156;2023-06-01T06:09:47;14.50;99.90
15274;DHT22;7738;49.532;11.156;2023-06-01T06:12:17;14.40;99.90
15274;DHT22;7738;49.532;11.156;2023-06-01T06:14:47;14.40;99.90
15274;DHT22;7738;49.532;11.156;2023-06-01T06:17:25;14.90;99.90
15274;DHT22;7738;49.532;11.156;2023-06-01T06:20:01;15.20;98.60
15274;DHT22;7738;49.532;11.156;2023-06-01T06:25:07;16.10;99.90
15274;DHT22;7738;49.532;11.156;2023-06-01T06:27:38;16.30;95.40
15274;DHT22;7738;49.532;11.156;2023-06-01T06:30:10;16.40;94.80
15274;DHT22;7738;49.532;11.156;2023-06-01T06:35:13;17.00;96.80
15274;DHT22;7738;49.532;11.156;2023-06-01T06:37:43;17.10;96.70
15274;DHT22;7738;49.532;11.156;2023-06-01T06:40:13;17.60;95.70
15274;DHT22;7738;49.532;11.156;2023-06-01T06:42:45;17.20;95.00
15274;DHT22;7738;49.532;11.156;2023-06-01T06:50:20;18.30;91.30
15274;DHT22;7738;49.532;11.156;2023-06-01T06:52:50;18.30;86.80
15274;DHT22;7738;49.532;11.156;2023-06-01T06:55:21;18.40;90.30
15274;DHT22;7738;49.532;11.156;2023-06-01T06:57:52;18.60;90.80
15274;DHT22;7738;49.532;11.156;2023-06-01T07:00:22;18.80;90.20
15274;DHT22;7738;49.532;11.156;2023-06-01T07:02:53;19.30;88.00
15274;DHT22;7738;49.532;11.156;2023-06-01T07:05:26;19.30;86.30
15274;DHT22;7738;49.532;11.156;2023-06-01T07:07:56;19.70;84.80
15274;DHT22;7738;49.532;11.156;2023-06-01T07:10:26;19.60;85.10
15274;DHT22;7738;49.532;11.156;2023-06-01T07:15:27;19.90;76.50
15274;DHT22;7738;49.532;11.156;2023-06-01T07:17:57;20.20;76.10
15274;DHT22;7738;49.532;11.156;2023-06-01T07:20:30;20.30;81.70
15274;DHT22;7738;49.532;11.156;2023-06-01T07:23:00;20.40;75.70
15274;DHT22;7738;49.532;11.156;2023-06-01T07:25:30;20.40;69.60
15274;DHT22;7738;49.532;11.156;2023-06-01T07:28:00;20.40;75.30
15274;DHT22;7738;49.532;11.156;2023-06-01T07:30:35;20.60;76.70
15274;DHT22;7738;49.532;11.156;2023-06-01T07:33:05;20.80;72.80
15274;DHT22;7738;49.532;11.156;2023-06-01T07:35:38;20.50;73.40
15274;DHT22;7738;49.532;11.156;2023-06-01T07:40:39;21.10;69.10
15274;DHT22;7738;49.532;11.156;2023-06-01T07:43:09;20.60;68.90
15274;DHT22;7738;49.532;11.156;2023-06-01T07:45:39;21.00;69.70
15274;DHT22;7738;49.532;11.156;2023-06-01T07:48:10;20.70;67.50
15274;DHT22;7738;49.532;11.156;2023-06-01T07:50:43;21.20;66.20
15274;DHT22;7738;49.532;11.156;2023-06-01T07:53:13;21.50;65.20
15274;DHT22;7738;49.532;11.156;2023-06-01T07:55:45;21.50;65.40
15274;DHT22;7738;49.532;11.156;2023-06-01T07:58:17;21.70;63.80
15274;DHT22;7738;49.532;11.156;2023-06-01T08:00:47;21.70;63.20
15274;DHT22;7738;49.532;11.156;2023-06-01T08:03:18;21.80;63.40
15274;DHT22;7738;49.532;11.156;2023-06-01T08:05:55;21.90;61.60
15274;DHT22;7738;49.532;11.156;2023-06-01T08:08:27;22.00;59.70
15274;DHT22;7738;49.532;11.156;2023-06-01T08:10:57;22.10;60.10
15274;DHT22;7738;49.532;11.156;2023-06-01T08:13:30;22.20;58.80
15274;DHT22;7738;49.532;11.156;2023-06-01T08:16:03;22.40;60.10
15274;DHT22;7738;49.532;11.156;2023-06-01T08:18:34;22.60;60.50
15274;DHT22;7738;49.532;11.156;2023-06-01T08:21:07;22.70;57.40
15274;DHT22;7738;49.532;11.156;2023-06-01T08:23:38;22.70;57.40
15274;DHT22;7738;49.532;11.156;2023-06-01T08:26:08;22.90;55.70
15274;DHT22;7738;49.532;11.156;2023-06-01T08:28:38;23.00;56.80
15274;DHT22;7738;49.532;11.156;2023-06-01T08:31:08;23.20;56.80
15274;DHT22;7738;49.532;11.156;2023-06-01T08:33:39;23.40;56.70
15274;DHT22;7738;49.532;11.156;2023-06-01T08:36:12;23.50;56.50
15274;DHT22;7738;49.532;11.156;2023-06-01T08:38:43;23.70;55.60
15274;DHT22;7738;49.532;11.156;2023-06-01T08:41:19;21.30;52.70
15274;DHT22;7738;49.532;11.156;2023-06-01T08:43:54;24.30;53.40
15274;DHT22;7738;49.532;11.156;2023-06-01T08:46:25;24.50;53.20
15274;DHT22;7738;49.532;11.156;2023-06-01T08:48:58;24.60;51.40
15274;DHT22;7738;49.532;11.156;2023-06-01T08:51:32;24.90;51.90
15274;DHT22;7738;49.532;11.156;2023-06-01T08:54:05;24.80;48.50
15274;DHT22;7738;49.532;11.156;2023-06-01T08:56:37;25.10;49.20
15274;DHT22;7738;49.532;11.156;2023-06-01T08:59:11;25.50;49.00
15274;DHT22;7738;49.532;11.156;2023-06-01T09:01:42;25.60;48.80
15274;DHT22;7738;49.532;11.156;2023-06-01T09:04:12;25.50;48.30
15274;DHT22;7738;49.532;11.156;2023-06-01T09:06:45;25.70;50.10
15274;DHT22;7738;49.532;11.156;2023-06-01T09:09:18;26.00;48.20
15274;DHT22;7738;49.532;11.156;2023-06-01T09:11:48;26.30;48.70
15274;DHT22;7738;49.532;11.156;2023-06-01T09:14:38;26.20;46.00
15274;DHT22;7738;49.532;11.156;2023-06-01T09:17:12;26.50;46.00
15274;DHT22;7738;49.532;11.156;2023-06-01T09:19:43;26.60;45.20
15274;DHT22;7738;49.532;11.156;2023-06-01T09:22:16;27.00;46.30
15274;DHT22;7738;49.532;11.156;2023-06-01T09:24:55;27.00;46.00
15274;DHT22;7738;49.532;11.156;2023-06-01T09:27:26;27.00;45.20
15274;DHT22;7738;49.532;11.156;2023-06-01T09:29:58;27.00;44.90
15274;DHT22;7738;49.532;11.156;2023-06-01T09:32:28;27.40;44.70
15274;DHT22;7738;49.532;11.156;2023-06-01T09:37:33;26.80;42.70
15274;DHT22;7738;49.532;11.156;2023-06-01T09:40:16;26.60;42.00
15274;DHT22;7738;49.532;11.156;2023-06-01T09:42:46;26.70;44.20
15274;DHT22;7738;49.532;11.156;2023-06-01T09:45:19;26.60;42.60
15274;DHT22;7738;49.532;11.156;2023-06-01T09:47:51;26.60;43.30
15274;DHT22;7738;49.532;11.156;2023-06-01T09:50:34;26.50;44.40
15274;DHT22;7738;49.532;11.156;2023-06-01T09:53:07;26.30;43.90
15274;DHT22;7738;49.532;11.156;2023-06-01T09:55:56;26.50;45.10
15274;DHT22;7738;49.532;11.156;2023-06-01T09:58:27;26.70;44.70
15274;DHT22;7738;49.532;11.156;2023-06-01T10:00:59;27.30;43.70
15274;DHT22;7738;49.532;11.156;2023-06-01T10:03:31;27.50;43.30
15274;DHT22;7738;49.532;11.156;2023-06-01T10:06:03;27.70;45.30
15274;DHT22;7738;49.532;11.156;2023-06-01T10:08:37;28.30;42.20
15274;DHT22;7738;49.532;11.156;2023-06-01T10:11:08;28.60;41.80
15274;DHT22;7738;49.532;11.156;2023-06-01T10:13:38;28.50;39.90
15274;DHT22;7738;49.532;11.156;2023-06-01T10:18:40;27.50;42.70
15274;DHT22;7738;49.532;11.156;2023-06-01T10:21:11;26.90;43.20
15274;DHT22;7738;49.532;11.156;2023-06-01T10:23:44;27.30;43.50
15274;DHT22;7738;49.532;11.156;2023-06-01T10:26:16;27.60;41.80
15274;DHT22;7738;49.532;11.156;2023-06-01T10:28:48;27.60;41.40
15274;DHT22;7738;49.532;11.156;2023-06-01T10:31:37;27.30;41.50
15274;DHT22;7738;49.532;11.156;2023-06-01T10:34:10;27.00;41.30
15274;DHT22;7738;49.532;11.156;2023-06-01T10:39:43;26.90;41.00
15274;DHT22;7738;49.532;11.156;2023-06-01T10:42:38;26.90;42.60
15274;DHT22;7738;49.532;11.156;2023-06-01T10:45:36;27.30;43.50
15274;DHT22;7738;49.532;11.156;2023-06-01T10:48:08;27.20;41.60
15274;DHT22;7738;49.532;11.156;2023-06-01T10:50:41;27.30;42.00
15274;DHT22;7738;49.532;11.156;2023-06-01T10:53:33;27.60;42.70
15274;DHT22;7738;49.532;11.156;2023-06-01T10:56:21;27.70;42.40
15274;DHT22;7738;49.532;11.156;2023-06-01T10:59:09;28.00;40.40
15274;DHT22;7738;49.532;11.156;2023-06-01T11:01:46;28.30;40.10
15274;DHT22;7738;49.532;11.156;2023-06-01T11:04:34;28.20;40.30
15274;DHT22;7738;49.532;11.156;2023-06-01T11:07:34;28.50;39.80
15274;DHT22;7738;49.532;11.156;2023-06-01T11:10:06;28.90;39.80
15274;DHT22;7738;49.532;11.156;2023-06-01T11:13:12;28.70;38.10
15274;DHT22;7738;49.532;11.156;2023-06-01T11:18:51;29.70;37.20
15274;DHT22;7738;49.532;11.156;2023-06-01T11:21:26;29.70;43.30
15274;DHT22;7738;49.532;11.156;2023-06-01T11:23:58;29.70;39.50
15274;DHT22;7738;49.532;11.156;2023-06-01T11:26:30;30.00;38.30
15274;DHT22;7738;49.532;11.156;2023-06-01T11:29:11;29.50;40.80
15274;DHT22;7738;49.532;11.156;2023-06-01T11:31:44;29.80;40.40
15274;DHT22;7738;49.532;11.156;2023-06-01T11:34:19;30.00;38.60
15274;DHT22;7738;49.532;11.156;2023-06-01T11:36:54;29.80;38.50
15274;DHT22;7738;49.532;11.156;2023-06-01T11:39:26;29.80;42.60
15274;DHT22;7738;49.532;11.156;2023-06-01T11:42:05;29.70;38.40
15274;DHT22;7738;49.532;11.156;2023-06-01T11:44:40;29.30;37.70
15274;DHT22;7738;49.532;11.156;2023-06-01T11:47:11;29.20;41.90
15274;DHT22;7738;49.532;11.156;2023-06-01T11:49:42;29.30;39.00
15274;DHT22;7738;49.532;11.156;2023-06-01T11:52:18;29.20;38.80
15274;DHT22;7738;49.532;11.156;2023-06-01T11:54:48;28.80;40.60
15274;DHT22;7738;49.532;11.156;2023-06-01T11:59:54;29.70;39.00
15274;DHT22;7738;49.532;11.156;2023-06-01T12:02:27;30.10;38.80
15274;DHT22;7738;49.532;11.156;2023-06-01T12:04:59;29.90;39.80
15274;DHT22;7738;49.532;11.156;2023-06-01T12:07:43;30.30;38.50
15274;DHT22;7738;49.532;11.156;2023-06-01T12:10:15;30.50;36.60
15274;DHT22;7738;49.532;11.156;2023-06-01T12:15:19;30.50;36.90
15274;DHT22;7738;49.532;11.156;2023-06-01T12:17:50;30.70;38.40
15274;DHT22;7738;49.532;11.156;2023-06-01T12:20:27;30.50;37.20
15274;DHT22;7738;49.532;11.156;2023-06-01T12:25:30;30.50;36.60
15274;DHT22;7738;49.532;11.156;2023-06-01T12:28:05;29.70;36.80
15274;DHT22;7738;49.532;11.156;2023-06-01T12:30:38;29.90;37.50
15274;DHT22;7738;49.532;11.156;2023-06-01T12:35:49;30.50;37.10
15274;DHT22;7738;49.532;11.156;2023-06-01T12:41:05;31.00;39.50
15274;DHT22;7738;49.532;11.156;2023-06-01T12:43:35;30.90;39.30
15274;DHT22;7738;49.532;11.156;2023-06-01T12:46:17;31.40;37.50
15274;DHT22;7738;49.532;11.156;2023-06-01T12:48:49;30.50;35.30
15274;DHT22;7738;49.532;11.156;2023-06-01T12:51:20;30.50;34.70
15274;DHT22;7738;49.532;11.156;2023-06-01T12:53:51;30.90;35.60
15274;DHT22;7738;49.532;11.156;2023-06-01T12:56:21;30.80;37.50
15274;DHT22;7738;49.532;11.156;2023-06-01T13:01:24;30.10;34.40
15274;DHT22;7738;49.532;11.156;2023-06-01T13:06:25;30.40;37.70
15274;DHT22;7738;49.532;11.156;2023-06-01T13:08:55;30.20;37.50
15274;DHT22;7738;49.532;11.156;2023-06-01T13:11:25;30.60;38.70
15274;DHT22;7738;49.532;11.156;2023-06-01T13:13:56;30.00;38.80
15274;DHT22;7738;49.532;11.156;2023-06-01T13:16:28;30.40;40.80
15274;DHT22;7738;49.532;11.156;2023-06-01T13:18:59;30.40;36.70
15274;DHT22;7738;49.532;11.156;2023-06-01T13:24:02;30.20;42.10
15274;DHT22;7738;49.532;11.156;2023-06-01T13:26:32;30.30;40.80
15274;DHT22;7738;49.532;11.156;2023-06-01T13:29:02;30.00;38.60
15274;DHT22;7738;49.532;11.156;2023-06-01T13:31:36;30.40;34.60
15274;DHT22;7738;49.532;11.156;2023-06-01T13:34:06;30.60;40.80
15274;DHT22;7738;49.532;11.156;2023-06-01T13:36:36;30.00;40.50
15274;DHT22;7738;49.532;11.156;2023-06-01T13:39:06;29.70;42.00
15274;DHT22;7738;49.532;11.156;2023-06-01T13:41:37;31.50;38.80
15274;DHT22;7738;49.532;11.156;2023-06-01T13:46:41;31.00;35.30
15274;DHT22;7738;49.532;11.156;2023-06-01T14:01:47;30.50;41.20
15274;DHT22;7738;49.532;11.156;2023-06-01T14:11:50;30.00;38.10
15274;DHT22;7738;49.532;11.156;2023-06-01T14:16:53;30.40;40.70
15274;DHT22;7738;49.532;11.156;2023-06-01T14:31:59;30.00;36.80
15274;DHT22;7738;49.532;11.156;2023-06-01T14:47:05;29.70;37.20
15274;DHT22;7738;49.532;11.156;2023-06-01T14:57:15;29.50;40.60
15274;DHT22;7738;49.532;11.156;2023-06-01T15:02:32;29.30;35.30
15274;DHT22;7738;49.532;11.156;2023-06-01T15:10:06;28.70;38.50
15274;DHT22;7738;49.532;11.156;2023-06-01T15:12:37;28.40;43.30
15274;DHT22;7738;49.532;11.156;2023-06-01T15:17:40;28.30;37.70
15274;DHT22;7738;49.532;11.156;2023-06-01T15:20:11;28.00;44.30
15274;DHT22;7738;49.532;11.156;2023-06-01T15:22:42;28.90;39.30
15274;DHT22;7738;49.532;11.156;2023-06-01T15:32:47;27.80;40.10
15274;DHT22;7738;49.532;11.156;2023-06-01T15:40:35;27.80;42.40
15274;DHT22;7738;49.532;11.156;2023-06-01T15:45:35;27.70;44.40
15274;DHT22;7738;49.532;11.156;2023-06-01T15:48:08;27.50;38.60
15274;DHT22;7738;49.532;11.156;2023-06-01T15:50:39;27.20;39.30
15274;DHT22;7738;49.532;11.156;2023-06-01T15:53:09;27.00;43.50
15274;DHT22;7738;49.532;11.156;2023-06-01T15:55:39;26.90;46.30
15274;DHT22;7738;49.532;11.156;2023-06-01T15:58:09;26.90;47.70
15274;DHT22;7738;49.532;11.156;2023-06-01T16:00:39;26.80;41.40
15274;DHT22;7738;49.532;11.156;2023-06-01T16:03:12;26.80;41.20
15274;DHT22;7738;49.532;11.156;2023-06-01T16:05:43;26.80;41.10
15274;DHT22;7738;49.532;11.156;2023-06-01T16:08:13;26.80;44.50
15274;DHT22;7738;49.532;11.156;2023-06-01T16:10:44;26.60;46.40
15274;DHT22;7738;49.532;11.156;2023-06-01T16:13:14;26.70;47.20
15274;DHT22;7738;49.532;11.156;2023-06-01T16:15:44;26.50;47.20
15274;DHT22;7738;49.532;11.156;2023-06-01T16:18:17;26.20;48.80
15274;DHT22;7738;49.532;11.156;2023-06-01T16:23:18;26.20;48.40
15274;DHT22;7738;49.532;11.156;2023-06-01T16:25:48;26.10;49.70
15274;DHT22;7738;49.532;11.156;2023-06-01T16:28:18;26.10;45.60
15274;DHT22;7738;49.532;11.156;2023-06-01T16:30:49;25.40;49.90
15274;DHT22;7738;49.532;11.156;2023-06-01T16:33:21;25.90;50.40
15274;DHT22;7738;49.532;11.156;2023-06-01T16:35:55;25.40;50.60
15274;DHT22;7738;49.532;11.156;2023-06-01T16:40:56;25.50;50.30
15274;DHT22;7738;49.532;11.156;2023-06-01T16:43:26;24.80;50.20
15274;DHT22;7738;49.532;11.156;2023-06-01T16:45:56;25.40;48.70
15274;DHT22;7738;49.532;11.156;2023-06-01T16:48:29;25.10;51.70
15274;DHT22;7738;49.532;11.156;2023-06-01T16:50:59;25.50;44.90
15274;DHT22;7738;49.532;11.156;2023-06-01T16:53:29;25.10;45.60
15274;DHT22;7738;49.532;11.156;2023-06-01T16:55:59;25.10;46.20
15274;DHT22;7738;49.532;11.156;2023-06-01T16:58:30;24.40;52.10
15274;DHT22;7738;49.532;11.156;2023-06-01T17:01:00;24.80;52.70
15274;DHT22;7738;49.532;11.156;2023-06-01T17:03:33;24.40;53.80
15274;DHT22;7738;49.532;11.156;2023-06-01T17:06:05;24.30;49.30
15274;DHT22;7738;49.532;11.156;2023-06-01T17:08:35;24.40;53.70
15274;DHT22;7738;49.532;11.156;2023-06-01T17:11:05;24.30;53.80
15274;DHT22;7738;49.532;11.156;2023-06-01T17:13:35;23.70;54.10
15274;DHT22;7738;49.532;11.156;2023-06-01T17:16:06;24.10;53.80
15274;DHT22;7738;49.532;11.156;2023-06-01T17:18:39;23.60;54.50
15274;DHT22;7738;49.532;11.156;2023-06-01T17:26:10;23.00;59.40
15274;DHT22;7738;49.532;11.156;2023-06-01T17:28:40;24.00;61.70
15274;DHT22;7738;49.532;11.156;2023-06-01T17:31:10;23.20;61.40
15274;DHT22;7738;49.532;11.156;2023-06-01T17:33:43;24.00;62.30
15274;DHT22;7738;49.532;11.156;2023-06-01T17:36:13;23.50;48.60
15274;DHT22;7738;49.532;11.156;2023-06-01T17:41:14;23.70;59.50
15274;DHT22;7738;49.532;11.156;2023-06-01T17:46:15;23.40;59.80
15274;DHT22;7738;49.532;11.156;2023-06-01T17:48:48;23.40;60.00
15274;DHT22;7738;49.532;11.156;2023-06-01T17:53:48;24.40;58.50
15274;DHT22;7738;49.532;11.156;2023-06-01T17:56:18;24.30;57.00
15274;DHT22;7738;49.532;11.156;2023-06-01T18:01:21;23.40;59.80
15274;DHT22;7738;49.532;11.156;2023-06-01T18:03:54;23.10;56.30
15274;DHT22;7738;49.532;11.156;2023-06-01T18:06:25;23.40;62.50
15274;DHT22;7738;49.532;11.156;2023-06-01T18:08:56;23.30;62.90
15274;DHT22;7738;49.532;11.156;2023-06-01T18:11:26;23.10;61.90
15274;DHT22;7738;49.532;11.156;2023-06-01T18:18:59;23.20;50.90
15274;DHT22;7738;49.532;11.156;2023-06-01T18:21:30;23.10;62.80
15274;DHT22;7738;49.532;11.156;2023-06-01T18:26:31;22.60;59.90
15274;DHT22;7738;49.532;11.156;2023-06-01T18:29:01;22.40;52.20
15274;DHT22;7738;49.532;11.156;2023-06-01T18:34:04;22.10;62.40
15274;DHT22;7738;49.532;11.156;2023-06-01T18:39:05;22.10;62.80
15274;DHT22;7738;49.532;11.156;2023-06-01T18:41:37;22.30;64.30
15274;DHT22;7738;49.532;11.156;2023-06-01T18:44:08;22.20;64.50
15274;DHT22;7738;49.532;11.156;2023-06-01T18:46:38;22.50;65.90
15274;DHT22;7738;49.532;11.156;2023-06-01T18:49:11;22.10;54.50
15274;DHT22;7738;49.532;11.156;2023-06-01T18:51:42;22.10;55.10
15274;DHT22;7738;49.532;11.156;2023-06-01T18:54:12;21.70;65.20
15274;DHT22;7738;49.532;11.156;2023-06-01T18:56:42;21.50;56.40
15274;DHT22;7738;49.532;11.156;2023-06-01T18:59:14;21.20;66.70
15274;DHT22;7738;49.532;11.156;2023-06-01T19:01:44;21.20;65.60
15274;DHT22;7738;49.532;11.156;2023-06-01T19:04:17;21.00;66.20
15274;DHT22;7738;49.532;11.156;2023-06-01T19:06:47;21.40;58.50
15274;DHT22;7738;49.532;11.156;2023-06-01T19:09:18;20.80;65.80
15274;DHT22;7738;49.532;11.156;2023-06-01T19:14:18;20.80;66.50
15274;DHT22;7738;49.532;11.156;2023-06-01T19:16:49;23.00;57.90
15274;DHT22;7738;49.532;11.156;2023-06-01T19:19:23;20.40;59.20
15274;DHT22;7738;49.532;11.156;2023-06-01T19:21:54;20.80;65.30
15274;DHT22;7738;49.532;11.156;2023-06-01T19:24:25;19.90;64.50
15274;DHT22;7738;49.532;11.156;2023-06-01T19:29:26;20.60;64.50
15274;DHT22;7738;49.532;11.156;2023-06-01T19:34:32;19.90;58.20
15274;DHT22;7738;49.532;11.156;2023-06-01T19:37:04;19.90;63.20
15274;DHT22;7738;49.532;11.156;2023-06-01T19:39:38;19.80;57.00
15274;DHT22;7738;49.532;11.156;2023-06-01T19:42:36;19.50;63.90
15274;DHT22;7738;49.532;11.156;2023-06-01T19:45:07;19.50;64.20
15274;DHT22;7738;49.532;11.156;2023-06-01T19:47:45;19.20;59.30
15274;DHT22;7738;49.532;11.156;2023-06-01T19:50:38;19.50;57.80
15274;DHT22;7738;49.532;11.156;2023-06-01T19:53:14;19.30;57.60
15274;DHT22;7738;49.532;11.156;2023-06-01T19:55:45;19.30;63.90